sensor_id;sensor_type;location;lat;lon;timestamp;pressure;altitude;pressure_sealevel;temperature;humidity
50093;BME280;35974;47.752;10.290;2023-04-22T13:18:36;93204.47;;;21.85;31.29
50093;BME280;35974;47.752;10.290;2023-04-22T13:21:03;93204.84;;;21.16;33.63
50093;BME280;35974;47.752;10.290;2023-04-22T13:23:30;93203.81;;;21.55;32.13
50093;BME280;35974;47.752;10.290;2023-04-22T13:25:57;93203.84;;;21.88;32.76
50093;BME280;35974;47.752;10.290;2023-04-22T13:30:55;93195.38;;;22.19;32.59
50093;BME280;35974;47.752;10.290;2023-04-22T13:33:21;93196.53;;;21.80;32.04
50093;BME280;35974;47.752;10.290;2023-04-22T13:35:48;93193.38;;;21.59;31.76
50093;BME280;35974;47.752;10.290;2023-04-22T13:38:14;93192.81;;;21.43;33.51
50093;BME280;35974;47.752;10.290;2023-04-22T13:40:40;93194.22;;;21.92;34.62
50093;BME280;35974;47.752;10.290;2023-04-22T13:43:07;93195.84;;;21.55;34.11
50093;BME280;35974;47.752;10.290;2023-04-22T13:45:34;93189.56;;;21.65;33.81
50093;BME280;35974;47.752;10.290;2023-04-22T13:48:00;93196.13;;;21.35;34.88
50093;BME280;35974;47.752;10.290;2023-04-22T13:50:39;93191.22;;;21.80;32.60
50093;BME280;35974;47.752;10.290;2023-04-22T13:53:08;93184.19;;;22.03;33.69
50093;BME280;35974;47.752;10.290;2023-04-22T13:55:35;93187.38;;;22.19;31.47
50093;BME280;35974;47.752;10.290;2023-04-22T13:58:02;93179.56;;;22.42;32.26
50093;BME280;35974;47.752;10.290;2023-04-22T14:00:32;93183.72;;;22.34;33.47
50093;BME280;35974;47.752;10.290;2023-04-22T14:02:59;93177.41;;;22.72;33.27
50093;BME280;35974;47.752;10.290;2023-04-22T14:05:25;93173.75;;;22.67;31.57
50093;BME280;35974;47.752;10.290;2023-04-22T14:07:52;93174.44;;;22.59;30.78
50093;BME280;35974;47.752;10.290;2023-04-22T14:10:28;93182.16;;;22.47;33.10
50093;BME280;35974;47.752;10.290;2023-04-22T14:12:54;93176.53;;;21.83;33.47
50093;BME280;35974;47.752;10.290;2023-04-22T14:15:21;93173.56;;;22.17;32.43
50093;BME280;35974;47.752;10.290;2023-04-22T14:17:47;93178.00;;;22.41;32.99
50093;BME280;35974;47.752;10.290;2023-04-22T14:20:14;93173.25;;;22.38;31.47
50093;BME280;35974;47.752;10.290;2023-04-22T14:22:47;93172.38;;;22.56;32.51
50093;BME280;35974;47.752;10.290;2023-04-22T14:25:13;93172.81;;;22.30;32.39
50093;BME280;35974;47.752;10.290;2023-04-22T14:27:40;93160.53;;;22.02;32.40
50093;BME280;35974;47.752;10.290;2023-04-22T14:30:06;93174.66;;;21.83;33.07
50093;BME280;35974;47.752;10.290;2023-04-22T14:32:33;93172.00;;;22.16;30.91
50093;BME280;35974;47.752;10.290;2023-04-22T14:35:00;93171.88;;;22.54;32.48
50093;BME280;35974;47.752;10.290;2023-04-22T14:37:26;93169.63;;;22.28;32.72
50093;BME280;35974;47.752;10.290;2023-04-22T14:39:53;93169.66;;;21.96;32.35
50093;BME280;35974;47.752;10.290;2023-04-22T14:42:19;93173.97;;;21.78;32.88
50093;BME280;35974;47.752;10.290;2023-04-22T14:44:45;93178.59;;;21.10;35.06
50093;BME280;35974;47.752;10.290;2023-04-22T14:47:12;93178.75;;;21.18;35.11
50093;BME280;35974;47.752;10.290;2023-04-22T14:49:38;93172.63;;;20.99;33.36
50093;BME280;35974;47.752;10.290;2023-04-22T14:52:05;93173.78;;;20.93;35.60
50093;BME280;35974;47.752;10.290;2023-04-22T14:54:32;93182.97;;;21.00;35.40
50093;BME280;35974;47.752;10.290;2023-04-22T14:56:58;93181.47;;;21.13;34.58
50093;BME280;35974;47.752;10.290;2023-04-22T14:59:24;93178.50;;;20.96;33.07
50093;BME280;35974;47.752;10.290;2023-04-22T15:01:51;93181.56;;;21.08;35.09
50093;BME280;35974;47.752;10.290;2023-04-22T15:04:17;93182.97;;;20.81;34.82
50093;BME280;35974;47.752;10.290;2023-04-22T15:06:44;93187.44;;;20.57;34.64
50093;BME280;35974;47.752;10.290;2023-04-22T15:09:10;93181.50;;;20.70;34.92
50093;BME280;35974;47.752;10.290;2023-04-22T15:11:37;93189.13;;;20.96;35.68
50093;BME280;35974;47.752;10.290;2023-04-22T15:14:03;93192.44;;;20.88;35.73
50093;BME280;35974;47.752;10.290;2023-04-22T15:16:30;93191.31;;;20.94;35.70
50093;BME280;35974;47.752;10.290;2023-04-22T15:18:56;93192.75;;;20.57;33.68
50093;BME280;35974;47.752;10.290;2023-04-22T15:21:23;93189.38;;;20.51;33.70
50093;BME280;35974;47.752;10.290;2023-04-22T15:23:49;93193.38;;;20.19;34.58
50093;BME280;35974;47.752;10.290;2023-04-22T15:26:15;93196.25;;;19.99;35.75
50093;BME280;35974;47.752;10.290;2023-04-22T15:28:42;93193.16;;;20.16;35.45
50093;BME280;35974;47.752;10.290;2023-04-22T15:31:08;93180.38;;;20.18;35.43
50093;BME280;35974;47.752;10.290;2023-04-22T15:33:34;93191.31;;;20.40;34.87
50093;BME280;35974;47.752;10.290;2023-04-22T15:36:01;93190.94;;;20.28;34.58
50093;BME280;35974;47.752;10.290;2023-04-22T15:38:30;93188.91;;;20.15;35.65
50093;BME280;35974;47.752;10.290;2023-04-22T15:43:37;93191.28;;;19.87;39.29
50093;BME280;35974;47.752;10.290;2023-04-22T15:46:06;93185.50;;;19.80;39.37
50093;BME280;35974;47.752;10.290;2023-04-22T15:48:33;93190.03;;;19.34;38.81
50093;BME280;35974;47.752;10.290;2023-04-22T15:51:00;93200.16;;;19.27;39.40
50093;BME280;35974;47.752;10.290;2023-04-22T15:53:26;93198.50;;;19.36;39.86
50093;BME280;35974;47.752;10.290;2023-04-22T15:55:52;93196.41;;;19.33;41.46
50093;BME280;35974;47.752;10.290;2023-04-22T15:58:19;93202.16;;;19.46;42.28
50093;BME280;35974;47.752;10.290;2023-04-22T16:00:45;93205.31;;;19.48;44.04
50093;BME280;35974;47.752;10.290;2023-04-22T16:03:11;93196.00;;;19.11;43.68
50093;BME280;35974;47.752;10.290;2023-04-22T16:05:38;93197.03;;;19.15;42.61
50093;BME280;35974;47.752;10.290;2023-04-22T16:08:04;93202.69;;;18.98;42.47
50093;BME280;35974;47.752;10.290;2023-04-22T16:10:31;93199.38;;;19.21;42.84
50093;BME280;35974;47.752;10.290;2023-04-22T16:12:57;93207.09;;;19.18;40.54
50093;BME280;35974;47.752;10.290;2023-04-22T16:15:23;93211.84;;;19.21;39.09
50093;BME280;35974;47.752;10.290;2023-04-22T16:17:51;93206.41;;;18.97;39.31
50093;BME280;35974;47.752;10.290;2023-04-22T16:20:17;93215.56;;;19.20;41.42
50093;BME280;35974;47.752;10.290;2023-04-22T16:22:44;93207.31;;;19.32;43.23
50093;BME280;35974;47.752;10.290;2023-04-22T16:27:40;93219.72;;;18.71;49.38
50093;BME280;35974;47.752;10.290;2023-04-22T16:30:06;93225.63;;;18.37;52.02
50093;BME280;35974;47.752;10.290;2023-04-22T16:32:32;93226.41;;;18.33;52.54
50093;BME280;35974;47.752;10.290;2023-04-22T16:37:53;93228.31;;;18.22;53.96
50093;BME280;35974;47.752;10.290;2023-04-22T16:40:19;93225.91;;;18.00;55.55
50093;BME280;35974;47.752;10.290;2023-04-22T16:42:47;93230.16;;;18.06;55.04
50093;BME280;35974;47.752;10.290;2023-04-22T16:45:13;93231.44;;;17.52;53.81
50093;BME280;35974;47.752;10.290;2023-04-22T16:47:39;93235.88;;;17.26;52.86
50093;BME280;35974;47.752;10.290;2023-04-22T16:50:06;93241.69;;;17.28;52.13
50093;BME280;35974;47.752;10.290;2023-04-22T16:52:35;93237.94;;;17.08;51.62
50093;BME280;35974;47.752;10.290;2023-04-22T16:55:01;93246.38;;;17.10;51.66
50093;BME280;35974;47.752;10.290;2023-04-22T16:57:28;93239.47;;;16.99;50.74
50093;BME280;35974;47.752;10.290;2023-04-22T16:59:54;93250.03;;;16.99;50.60
50093;BME280;35974;47.752;10.290;2023-04-22T17:02:21;93245.78;;;16.93;50.16
50093;BME280;35974;47.752;10.290;2023-04-22T17:04:47;93235.13;;;16.72;50.96
50093;BME280;35974;47.752;10.290;2023-04-22T17:07:14;93240.44;;;16.82;51.42
50093;BME280;35974;47.752;10.290;2023-04-22T17:09:40;93239.53;;;16.61;51.26
50093;BME280;35974;47.752;10.290;2023-04-22T17:12:07;93239.31;;;16.68;51.02
50093;BME280;35974;47.752;10.290;2023-04-22T17:14:34;93246.66;;;16.56;51.13
50093;BME280;35974;47.752;10.290;2023-04-22T17:17:00;93248.69;;;16.43;51.16
50093;BME280;35974;47.752;10.290;2023-04-22T17:19:26;93251.34;;;16.48;51.91
50093;BME280;35974;47.752;10.290;2023-04-22T17:21:53;93253.59;;;16.67;52.46
50093;BME280;35974;47.752;10.290;2023-04-22T17:24:19;93256.47;;;16.65;51.29
50093;BME280;35974;47.752;10.290;2023-04-22T17:26:47;93267.09;;;16.28;51.11
50093;BME280;35974;47.752;10.290;2023-04-22T17:29:14;93268.66;;;16.29;51.00
50093;BME280;35974;47.752;10.290;2023-04-22T17:31:41;93277.31;;;15.87;50.88
50093;BME280;35974;47.752;10.290;2023-04-22T17:34:07;93277.09;;;15.66;51.81
50093;BME280;35974;47.752;10.290;2023-04-22T17:36:34;93289.22;;;15.67;52.28
50093;BME280;35974;47.752;10.290;2023-04-22T17:39:00;93280.13;;;15.53;50.91
50093;BME280;35974;47.752;10.290;2023-04-22T17:41:27;93283.81;;;15.52;51.82
50093;BME280;35974;47.752;10.290;2023-04-22T17:43:53;93286.66;;;15.45;52.55
50093;BME280;35974;47.752;10.290;2023-04-22T17:46:20;93287.94;;;15.43;51.99
50093;BME280;35974;47.752;10.290;2023-04-22T17:48:46;93289.41;;;15.33;52.30
50093;BME280;35974;47.752;10.290;2023-04-22T17:51:12;93281.94;;;15.25;52.69
50093;BME280;35974;47.752;10.290;2023-04-22T17:53:39;93290.06;;;14.96;52.85
50093;BME280;35974;47.752;10.290;2023-04-22T17:56:07;93300.81;;;15.17;53.10
50093;BME280;35974;47.752;10.290;2023-04-22T17:58:34;93301.31;;;15.14;52.40
50093;BME280;35974;47.752;10.290;2023-04-22T18:01:04;93299.16;;;14.67;54.09
50093;BME280;35974;47.752;10.290;2023-04-22T18:03:31;93301.00;;;14.88;53.21
50093;BME280;35974;47.752;10.290;2023-04-22T18:05:58;93301.78;;;14.67;54.11
50093;BME280;35974;47.752;10.290;2023-04-22T18:08:24;93303.03;;;14.81;54.73
50093;BME280;35974;47.752;10.290;2023-04-22T18:10:51;93306.44;;;14.59;54.75
50093;BME280;35974;47.752;10.290;2023-04-22T18:13:18;93313.28;;;14.60;55.32
50093;BME280;35974;47.752;10.290;2023-04-22T18:15:44;93302.91;;;14.71;54.37
50093;BME280;35974;47.752;10.290;2023-04-22T18:18:10;93314.06;;;14.44;55.38
50093;BME280;35974;47.752;10.290;2023-04-22T18:20:37;93322.53;;;14.46;55.01
50093;BME280;35974;47.752;10.290;2023-04-22T18:23:04;93323.91;;;14.66;55.24
50093;BME280;35974;47.752;10.290;2023-04-22T18:25:31;93323.63;;;14.50;56.32
50093;BME280;35974;47.752;10.290;2023-04-22T18:28:07;93331.78;;;14.49;55.88
50093;BME280;35974;47.752;10.290;2023-04-22T18:30:44;93325.72;;;14.65;54.64
50093;BME280;35974;47.752;10.290;2023-04-22T18:36:19;93336.06;;;14.38;56.63
50093;BME280;35974;47.752;10.290;2023-04-22T18:39:00;93331.47;;;14.45;57.43
50093;BME280;35974;47.752;10.290;2023-04-22T18:41:46;93336.25;;;14.48;57.26
50093;BME280;35974;47.752;10.290;2023-04-22T18:47:37;93344.22;;;14.53;57.01
50093;BME280;35974;47.752;10.290;2023-04-22T18:50:18;93346.47;;;14.61;56.27
50093;BME280;35974;47.752;10.290;2023-04-22T18:53:15;93350.47;;;14.64;55.70
50093;BME280;35974;47.752;10.290;2023-04-22T18:59:50;93357.63;;;14.35;58.65
50093;BME280;35974;47.752;10.290;2023-04-22T19:02:50;93352.38;;;14.35;59.42
50093;BME280;35974;47.752;10.290;2023-04-22T19:05:48;93368.63;;;14.32;59.15
50093;BME280;35974;47.752;10.290;2023-04-22T19:08:32;93371.69;;;14.57;59.47
50093;BME280;35974;47.752;10.290;2023-04-22T19:11:00;93375.66;;;14.43;59.20
50093;BME280;35974;47.752;10.290;2023-04-22T19:13:29;93376.47;;;14.26;59.78
50093;BME280;35974;47.752;10.290;2023-04-22T19:19:03;93376.28;;;14.50;59.37
50093;BME280;35974;47.752;10.290;2023-04-22T19:21:48;93370.38;;;14.09;61.66
50093;BME280;35974;47.752;10.290;2023-04-22T19:24:35;93368.75;;;14.08;60.51
50093;BME280;35974;47.752;10.290;2023-04-22T19:27:01;93373.09;;;14.14;59.83
50093;BME280;35974;47.752;10.290;2023-04-22T19:29:30;93377.22;;;14.10;60.07
50093;BME280;35974;47.752;10.290;2023-04-22T19:31:57;93370.09;;;13.94;59.88
50093;BME280;35974;47.752;10.290;2023-04-22T19:34:30;93379.31;;;13.79;61.81
50093;BME280;35974;47.752;10.290;2023-04-22T19:36:57;93376.56;;;13.86;61.32
50093;BME280;35974;47.752;10.290;2023-04-22T19:39:27;93375.94;;;13.96;61.50
50093;BME280;35974;47.752;10.290;2023-04-22T19:41:56;93372.72;;;13.94;61.07
50093;BME280;35974;47.752;10.290;2023-04-22T19:46:55;93373.19;;;13.90;62.83
50093;BME280;35974;47.752;10.290;2023-04-22T19:49:22;93364.13;;;13.81;62.42
50093;BME280;35974;47.752;10.290;2023-04-22T19:51:56;93367.75;;;13.80;62.71
50093;BME280;35974;47.752;10.290;2023-04-22T19:54:23;93358.66;;;13.71;63.30
50093;BME280;35974;47.752;10.290;2023-04-22T19:56:53;93367.59;;;13.70;62.81
50093;BME280;35974;47.752;10.290;2023-04-22T19:59:20;93364.66;;;13.54;64.37
50093;BME280;35974;47.752;10.290;2023-04-22T20:01:47;93367.81;;;13.28;64.69
50093;BME280;35974;47.752;10.290;2023-04-22T20:04:17;93364.75;;;13.07;65.80
50093;BME280;35974;47.752;10.290;2023-04-22T20:06:50;93354.25;;;13.07;65.76
50093;BME280;35974;47.752;10.290;2023-04-22T20:09:18;93360.88;;;12.98;66.24
50093;BME280;35974;47.752;10.290;2023-04-22T20:11:44;93354.84;;;12.97;66.00
50093;BME280;35974;47.752;10.290;2023-04-22T20:14:17;93359.31;;;12.73;67.71
50093;BME280;35974;47.752;10.290;2023-04-22T20:16:53;93358.41;;;12.56;68.34
50093;BME280;35974;47.752;10.290;2023-04-22T20:19:33;93355.91;;;12.61;68.61
50093;BME280;35974;47.752;10.290;2023-04-22T20:29:01;93346.09;;;12.68;68.29
50093;BME280;35974;47.752;10.290;2023-04-22T20:34:07;93349.50;;;12.57;69.01
50093;BME280;35974;47.752;10.290;2023-04-22T20:36:35;93357.28;;;12.75;68.82
50093;BME280;35974;47.752;10.290;2023-04-22T20:39:04;93353.78;;;13.10;67.53
50093;BME280;35974;47.752;10.290;2023-04-22T20:58:44;93344.28;;;11.91;82.80
50093;BME280;35974;47.752;10.290;2023-04-22T21:01:11;93342.13;;;11.88;80.17
50093;BME280;35974;47.752;10.290;2023-04-22T21:03:41;93329.44;;;12.27;75.74
50093;BME280;35974;47.752;10.290;2023-04-22T21:06:12;93316.78;;;12.12;77.25
50093;BME280;35974;47.752;10.290;2023-04-22T21:08:38;93313.44;;;12.17;77.11
50093;BME280;35974;47.752;10.290;2023-04-22T21:11:05;93317.66;;;12.18;77.00
50093;BME280;35974;47.752;10.290;2023-04-22T21:13:32;93324.59;;;12.00;78.23
50093;BME280;35974;47.752;10.290;2023-04-22T21:18:25;93318.91;;;12.03;76.64
50093;BME280;35974;47.752;10.290;2023-04-22T21:20:53;93315.03;;;11.94;77.78
50093;BME280;35974;47.752;10.290;2023-04-22T21:23:26;93309.13;;;12.11;76.46
50093;BME280;35974;47.752;10.290;2023-04-22T21:25:56;93324.88;;;12.11;76.18
50093;BME280;35974;47.752;10.290;2023-04-22T21:28:26;93318.66;;;11.93;77.75
50093;BME280;35974;47.752;10.290;2023-04-22T21:30:53;93317.88;;;11.93;77.80
50093;BME280;35974;47.752;10.290;2023-04-22T21:33:20;93327.97;;;11.89;78.61
50093;BME280;35974;47.752;10.290;2023-04-22T21:35:46;93335.19;;;11.94;76.67
50093;BME280;35974;47.752;10.290;2023-04-22T21:38:13;93344.13;;;11.86;79.38
50093;BME280;35974;47.752;10.290;2023-04-22T21:40:41;93335.03;;;11.77;76.19
50093;BME280;35974;47.752;10.290;2023-04-22T21:43:07;93332.88;;;11.85;76.76
50093;BME280;35974;47.752;10.290;2023-04-22T21:45:34;93334.81;;;11.90;76.18
50093;BME280;35974;47.752;10.290;2023-04-22T21:48:00;93341.66;;;11.91;75.35
50093;BME280;35974;47.752;10.290;2023-04-22T21:50:29;93339.81;;;11.80;76.33
50093;BME280;35974;47.752;10.290;2023-04-22T21:52:56;93341.16;;;11.70;76.53
50093;BME280;35974;47.752;10.290;2023-04-22T21:57:53;93338.66;;;11.76;76.09
50093;BME280;35974;47.752;10.290;2023-04-22T22:00:19;93341.53;;;11.86;75.40
50093;BME280;35974;47.752;10.290;2023-04-22T22:02:46;93334.63;;;12.03;73.13
50093;BME280;35974;47.752;10.290;2023-04-22T22:05:13;93333.97;;;11.96;73.62
50093;BME280;35974;47.752;10.290;2023-04-22T22:07:48;93333.97;;;11.78;75.44
50093;BME280;35974;47.752;10.290;2023-04-22T22:10:16;93334.56;;;11.80;76.16
50093;BME280;35974;47.752;10.290;2023-04-22T22:12:45;93333.41;;;11.76;75.71
50093;BME280;35974;47.752;10.290;2023-04-22T22:15:12;93326.22;;;12.01;74.33
50093;BME280;35974;47.752;10.290;2023-04-22T22:17:38;93320.28;;;12.18;73.06
50093;BME280;35974;47.752;10.290;2023-04-22T22:20:13;93316.22;;;12.22;72.35
50093;BME280;35974;47.752;10.290;2023-04-22T22:22:43;93323.03;;;12.23;72.81
50093;BME280;35974;47.752;10.290;2023-04-22T22:25:10;93333.63;;;12.28;73.71
50093;BME280;35974;47.752;10.290;2023-04-22T22:27:37;93344.00;;;12.23;76.43
50093;BME280;35974;47.752;10.290;2023-04-22T22:30:06;93342.19;;;12.12;80.76
50093;BME280;35974;47.752;10.290;2023-04-22T22:32:33;93337.63;;;12.19;79.87
50093;BME280;35974;47.752;10.290;2023-04-22T22:35:00;93334.53;;;12.10;80.01
50093;BME280;35974;47.752;10.290;2023-04-22T22:37:27;93330.56;;;12.07;79.87
50093;BME280;35974;47.752;10.290;2023-04-22T22:39:54;93341.50;;;12.04;80.66
50093;BME280;35974;47.752;10.290;2023-04-22T22:42:21;93337.03;;;12.05;83.10
50093;BME280;35974;47.752;10.290;2023-04-22T22:44:47;93358.00;;;11.75;93.44
50093;BME280;35974;47.752;10.290;2023-04-22T22:47:14;93352.06;;;11.67;95.94
50093;BME280;35974;47.752;10.290;2023-04-22T22:49:42;93354.81;;;11.72;95.48
50093;BME280;35974;47.752;10.290;2023-04-22T22:52:09;93354.63;;;11.86;94.24
50093;BME280;35974;47.752;10.290;2023-04-22T22:54:37;93354.94;;;11.96;92.67
50093;BME280;35974;47.752;10.290;2023-04-22T22:57:04;93343.28;;;11.92;93.18
50093;BME280;35974;47.752;10.290;2023-04-22T22:59:32;93348.25;;;11.82;95.43
50093;BME280;35974;47.752;10.290;2023-04-22T23:01:58;93338.22;;;11.79;96.53
50093;BME280;35974;47.752;10.290;2023-04-22T23:04:25;93341.94;;;11.71;98.67
50093;BME280;35974;47.752;10.290;2023-04-22T23:06:53;93347.03;;;11.54;100.00
50093;BME280;35974;47.752;10.290;2023-04-22T23:09:19;93331.31;;;11.54;100.00
50093;BME280;35974;47.752;10.290;2023-04-22T23:11:49;93333.16;;;11.65;100.00
50093;BME280;35974;47.752;10.290;2023-04-22T23:14:23;93325.63;;;11.57;100.00
50093;BME280;35974;47.752;10.290;2023-04-22T23:16:51;93318.78;;;11.56;100.00
50093;BME280;35974;47.752;10.290;2023-04-22T23:19:18;93319.22;;;11.53;100.00
50093;BME280;35974;47.752;10.290;2023-04-22T23:21:44;93317.78;;;11.39;100.00
50093;BME280;35974;47.752;10.290;2023-04-22T23:24:12;93319.56;;;11.26;100.00
50093;BME280;35974;47.752;10.290;2023-04-22T23:26:39;93321.59;;;11.24;100.00
50093;BME280;35974;47.752;10.290;2023-04-22T23:29:05;93314.34;;;11.26;100.00
50093;BME280;35974;47.752;10.290;2023-04-22T23:31:33;93305.59;;;11.32;100.00
50093;BME280;35974;47.752;10.290;2023-04-22T23:34:00;93305.72;;;11.38;100.00
50093;BME280;35974;47.752;10.290;2023-04-22T23:36:30;93294.38;;;11.44;100.00
50093;BME280;35974;47.752;10.290;2023-04-22T23:38:58;93289.81;;;11.51;100.00
50093;BME280;35974;47.752;10.290;2023-04-22T23:41:25;93293.91;;;11.47;100.00
50093;BME280;35974;47.752;10.290;2023-04-22T23:43:51;93295.50;;;11.48;100.00
50093;BME280;35974;47.752;10.290;2023-04-22T23:46:17;93305.59;;;11.75;100.00
50093;BME280;35974;47.752;10.290;2023-04-22T23:48:44;93296.19;;;11.55;100.00
50093;BME280;35974;47.752;10.290;2023-04-22T23:51:10;93302.81;;;11.58;100.00
50093;BME280;35974;47.752;10.290;2023-04-22T23:53:41;93297.44;;;11.41;100.00
50093;BME280;35974;47.752;10.290;2023-04-22T23:56:08;93287.44;;;11.19;100.00
50093;BME280;35974;47.752;10.290;2023-04-22T23:58:34;93300.38;;;11.14;100.00
